Time;durP1;ratioP1;P1;durP2;ratioP2;P2;SDS_P1;SDS_P2;PMS_P1;PMS_P2;Temp;Humidity;BMP_temperature;BMP_pressure;BME280_temperature;BME280_humidity;BME280_pressure;Samples;Min_cycle;Max_cycle;Signal;HPM_P1;HPM_P2
2021/10/21 00:02:21;;;;;;;19.33;3.67;;;;;;;;;;5043849;28;20179;-74
2021/10/21 00:04:46;;;;;;;12.10;2.70;;;;;;;;;;5044521;28;20197;-74
2021/10/21 00:07:12;;;;;;;12.97;3.10;;;;;;;;;;5044902;28;20199;-74
2021/10/21 00:09:37;;;;;;;9.10;2.57;;;;;;;;;;5044519;28;20179;-74
2021/10/21 00:12:03;;;;;;;12.60;3.73;;;;;;;;;;5045694;28;20184;-73
2021/10/21 00:14:29;;;;;;;19.50;3.43;;;;;;;;;;5046168;28;20653;-73
2021/10/21 00:16:54;;;;;;;11.00;2.57;;;;;;;;;;5046629;28;20434;-73
2021/10/21 00:19:19;;;;;;;11.83;2.97;;;;;;;;;;5042350;28;20541;-73
2021/10/21 00:21:45;;;;;;;12.60;3.13;;;;;;;;;;5043164;28;20264;-74
2021/10/21 00:24:10;;;;;;;10.90;2.90;;;;;;;;;;5042018;28;20184;-74
2021/10/21 00:26:35;;;;;;;9.83;2.60;;;;;;;;;;5044541;28;20286;-73
2021/10/21 00:29:00;;;;;;;16.53;4.03;;;;;;;;;;5044800;28;20551;-74
2021/10/21 00:31:25;;;;;;;11.93;2.83;;;;;;;;;;5043807;28;20176;-73
2021/10/21 00:33:51;;;;;;;10.50;2.80;;;;;;;;;;5043158;28;20311;-74
2021/10/21 00:36:16;;;;;;;12.70;2.63;;;;;;;;;;5045233;28;20179;-74
2021/10/21 00:38:41;;;;;;;10.77;2.63;;;;;;;;;;5044054;28;20646;-74
2021/10/21 00:41:07;;;;;;;15.80;2.80;;;;;;;;;;5047035;28;20267;-73
2021/10/21 00:43:39;;;;;;;12.33;2.70;;;;;;;;;;5048255;28;20230;-74
2021/10/21 00:46:05;;;;;;;14.00;3.23;;;;;;;;;;5043593;28;20218;-73
2021/10/21 00:48:30;;;;;;;13.43;3.10;;;;;;;;;;5041616;28;20846;-73
2021/10/21 00:50:56;;;;;;;8.00;2.20;;;;;;;;;;5045961;28;20419;-74
2021/10/21 00:53:21;;;;;;;8.73;2.67;;;;;;;;;;5044543;28;20176;-74
2021/10/21 00:55:46;;;;;;;10.30;3.33;;;;;;;;;;5045318;28;20183;-74
2021/10/21 00:58:11;;;;;;;10.10;3.10;;;;;;;;;;5043600;28;20294;-74
2021/10/21 01:00:37;;;;;;;8.53;3.30;;;;;;;;;;5044312;28;20184;-74
2021/10/21 01:03:02;;;;;;;11.80;3.80;;;;;;;;;;5043309;28;20278;-73
2021/10/21 01:05:27;;;;;;;8.63;3.17;;;;;;;;;;5042644;28;20621;-73
2021/10/21 01:07:53;;;;;;;11.47;3.00;;;;;;;;;;5042944;28;20673;-73
2021/10/21 01:10:18;;;;;;;9.67;3.27;;;;;;;;;;5043182;28;20184;-74
2021/10/21 01:12:44;;;;;;;13.83;4.00;;;;;;;;;;5043162;28;20934;-73
2021/10/21 01:15:28;;;;;;;14.23;4.03;;;;;;;;;;5044336;28;20188;-74
2021/10/21 01:17:56;;;;;;;8.87;3.50;;;;;;;;;;5043808;28;20669;-74
2021/10/21 01:20:22;;;;;;;11.40;4.50;;;;;;;;;;5026011;28;20442;-73
2021/10/21 01:22:47;;;;;;;9.90;3.97;;;;;;;;;;5044801;28;20445;-74
2021/10/21 01:25:13;;;;;;;14.10;5.20;;;;;;;;;;5045069;28;20246;-74
2021/10/21 01:27:39;;;;;;;8.47;4.63;;;;;;;;;;5043391;28;20204;-74
2021/10/21 01:30:04;;;;;;;13.93;4.37;;;;;;;;;;5044522;28;20984;-74
2021/10/21 01:32:34;;;;;;;11.37;4.20;;;;;;;;;;5027137;28;20190;-74
2021/10/21 01:35:00;;;;;;;8.50;4.03;;;;;;;;;;5047531;28;20221;-74
2021/10/21 01:37:25;;;;;;;10.37;4.87;;;;;;;;;;5027920;28;20457;-73
2021/10/21 01:39:53;;;;;;;9.57;4.23;;;;;;;;;;5047286;28;20207;-74
2021/10/21 01:42:18;;;;;;;7.70;4.30;;;;;;;;;;5049056;28;20191;-74
2021/10/21 01:44:43;;;;;;;8.23;3.80;;;;;;;;;;5048103;28;20430;-74
2021/10/21 01:47:08;;;;;;;7.73;3.93;;;;;;;;;;5044918;28;20204;-74
2021/10/21 01:49:34;;;;;;;7.63;4.50;;;;;;;;;;5044208;28;20207;-74
2021/10/21 01:51:59;;;;;;;12.47;3.93;;;;;;;;;;5048189;28;20186;-74
2021/10/21 01:54:24;;;;;;;11.23;4.90;;;;;;;;;;5029749;28;20637;-74
2021/10/21 01:56:49;;;;;;;11.30;4.67;;;;;;;;;;5029124;28;20744;-73
2021/10/21 01:59:14;;;;;;;10.33;4.70;;;;;;;;;;5046975;28;20191;-73
2021/10/21 02:01:43;;;;;;;6.20;4.23;;;;;;;;;;5048915;28;20179;-74
2021/10/21 02:04:08;;;;;;;7.80;4.20;;;;;;;;;;5046988;28;20544;-73
2021/10/21 02:06:33;;;;;;;10.07;4.33;;;;;;;;;;5044065;28;20468;-74
2021/10/21 02:08:59;;;;;;;7.03;4.90;;;;;;;;;;5047632;28;20187;-73
2021/10/21 02:11:24;;;;;;;9.80;5.43;;;;;;;;;;5049160;28;20207;-74
2021/10/21 02:13:49;;;;;;;8.23;5.70;;;;;;;;;;5045159;28;20262;-73
2021/10/21 02:16:15;;;;;;;6.77;5.43;;;;;;;;;;5046789;28;20202;-74
2021/10/21 02:18:40;;;;;;;7.87;5.20;;;;;;;;;;5046841;28;20249;-74
2021/10/21 02:21:06;;;;;;;9.37;5.43;;;;;;;;;;5044811;28;20524;-74
2021/10/21 02:23:31;;;;;;;10.70;5.93;;;;;;;;;;5046318;28;20172;-74
2021/10/21 02:25:56;;;;;;;8.87;5.93;;;;;;;;;;5046858;28;20620;-74
2021/10/21 02:28:22;;;;;;;7.97;5.17;;;;;;;;;;5045836;28;20269;-74
2021/10/21 02:30:47;;;;;;;6.10;5.40;;;;;;;;;;5047214;28;20171;-74
2021/10/21 02:33:13;;;;;;;9.40;5.63;;;;;;;;;;5044928;28;20175;-74
2021/10/21 02:35:38;;;;;;;8.70;5.97;;;;;;;;;;5046650;28;20191;-73
2021/10/21 02:38:04;;;;;;;6.00;4.83;;;;;;;;;;5042683;28;20465;-73
2021/10/21 02:40:29;;;;;;;7.50;4.87;;;;;;;;;;5046126;28;20188;-73
2021/10/21 02:42:54;;;;;;;5.73;4.77;;;;;;;;;;5047802;28;20180;-73
2021/10/21 02:45:21;;;;;;;6.27;4.57;;;;;;;;;;5044540;28;20204;-73
2021/10/21 02:47:48;;;;;;;10.50;5.67;;;;;;;;;;5042391;28;20199;-74
2021/10/21 02:50:13;;;;;;;7.27;4.57;;;;;;;;;;5045490;28;20915;-74
2021/10/21 02:52:41;;;;;;;4.70;4.20;;;;;;;;;;5047956;28;20617;-74
2021/10/21 02:55:07;;;;;;;3.93;3.53;;;;;;;;;;5043671;28;20279;-74
2021/10/21 02:57:32;;;;;;;5.57;3.97;;;;;;;;;;5045989;28;20560;-74
2021/10/21 02:59:58;;;;;;;6.40;3.83;;;;;;;;;;5048067;28;20180;-74
2021/10/21 03:02:23;;;;;;;6.20;3.70;;;;;;;;;;5041815;28;20229;-74
2021/10/21 03:04:48;;;;;;;7.20;4.30;;;;;;;;;;5039071;28;20207;-74
2021/10/21 03:07:13;;;;;;;7.90;3.53;;;;;;;;;;5044843;28;20211;-74
2021/10/21 03:09:39;;;;;;;4.80;3.00;;;;;;;;;;5044065;28;20257;-74
2021/10/21 03:12:04;;;;;;;4.50;2.70;;;;;;;;;;5047286;28;20621;-74
2021/10/21 03:14:29;;;;;;;4.40;2.33;;;;;;;;;;5044614;28;20203;-74
2021/10/21 03:16:57;;;;;;;5.20;2.10;;;;;;;;;;5042712;28;20190;-74
2021/10/21 03:19:22;;;;;;;3.13;2.03;;;;;;;;;;5045825;28;20179;-75
2021/10/21 03:21:47;;;;;;;4.73;1.37;;;;;;;;;;5046508;28;20430;-75
2021/10/21 03:24:12;;;;;;;3.83;1.00;;;;;;;;;;5046636;28;20269;-74
2021/10/21 03:26:38;;;;;;;1.87;0.97;;;;;;;;;;5045407;28;20226;-75
2021/10/21 03:29:03;;;;;;;7.57;1.17;;;;;;;;;;5042919;28;20188;-74
2021/10/21 03:31:29;;;;;;;5.50;1.73;;;;;;;;;;5044725;28;20180;-75
2021/10/21 03:33:55;;;;;;;3.17;1.10;;;;;;;;;;5045747;28;20180;-74
2021/10/21 03:36:20;;;;;;;2.70;1.10;;;;;;;;;;5046024;28;20487;-74
2021/10/21 03:38:45;;;;;;;1.27;0.80;;;;;;;;;;5044399;28;22653;-75
2021/10/21 03:41:11;;;;;;;3.33;1.17;;;;;;;;;;5044854;28;20194;-74
2021/10/21 03:43:36;;;;;;;3.40;1.03;;;;;;;;;;5046195;28;20707;-75
2021/10/21 03:46:01;;;;;;;2.37;1.27;;;;;;;;;;5044440;28;20272;-76
2021/10/21 03:48:26;;;;;;;4.80;1.30;;;;;;;;;;5041387;28;20204;-74
2021/10/21 03:50:51;;;;;;;1.83;0.97;;;;;;;;;;5045540;28;20211;-75
2021/10/21 03:53:17;;;;;;;2.53;0.90;;;;;;;;;;5046012;28;20184;-74
2021/10/21 03:55:42;;;;;;;2.93;1.20;;;;;;;;;;5041435;28;20567;-74
2021/10/21 03:58:07;;;;;;;4.73;1.00;;;;;;;;;;5042525;28;20251;-74
2021/10/21 04:00:33;;;;;;;1.50;0.90;;;;;;;;;;5044705;28;20187;-76
2021/10/21 04:02:58;;;;;;;4.47;1.00;;;;;;;;;;5043771;28;20213;-74
2021/10/21 04:05:24;;;;;;;3.70;1.30;;;;;;;;;;5045324;28;20260;-75
2021/10/21 04:07:49;;;;;;;5.27;0.90;;;;;;;;;;5040269;28;20208;-74
2021/10/21 04:10:14;;;;;;;1.67;0.87;;;;;;;;;;5044931;28;20211;-74
2021/10/21 04:12:40;;;;;;;2.07;0.90;;;;;;;;;;5042928;28;20235;-74
2021/10/21 04:15:05;;;;;;;3.73;1.10;;;;;;;;;;5044643;28;20192;-75
2021/10/21 04:17:31;;;;;;;6.03;1.40;;;;;;;;;;5045887;28;20720;-74
2021/10/21 04:19:56;;;;;;;5.90;0.70;;;;;;;;;;5045067;28;20171;-74
2021/10/21 04:22:21;;;;;;;4.17;1.30;;;;;;;;;;5047003;28;20176;-74
2021/10/21 04:24:46;;;;;;;4.80;0.97;;;;;;;;;;5043386;28;20249;-75
2021/10/21 04:27:12;;;;;;;2.67;0.80;;;;;;;;;;5040552;28;20643;-75
2021/10/21 04:29:37;;;;;;;6.27;1.30;;;;;;;;;;5046157;28;20211;-74
2021/10/21 04:32:03;;;;;;;4.00;0.93;;;;;;;;;;5045788;28;20871;-74
2021/10/21 04:34:28;;;;;;;11.13;1.50;;;;;;;;;;5044649;28;20549;-74
2021/10/21 04:36:53;;;;;;;1.73;0.97;;;;;;;;;;5044251;28;20187;-74
2021/10/21 04:39:19;;;;;;;7.63;1.30;;;;;;;;;;5043622;28;20270;-75
2021/10/21 04:41:44;;;;;;;2.43;1.00;;;;;;;;;;5044317;28;20183;-74
2021/10/21 04:44:09;;;;;;;6.00;1.37;;;;;;;;;;5047404;28;20188;-75
2021/10/21 04:46:35;;;;;;;2.93;1.10;;;;;;;;;;5046114;28;20301;-74
2021/10/21 04:49:00;;;;;;;3.17;0.90;;;;;;;;;;5045277;28;20204;-74
2021/10/21 04:51:25;;;;;;;3.80;1.10;;;;;;;;;;5046128;28;20179;-74
2021/10/21 04:53:50;;;;;;;6.50;1.17;;;;;;;;;;5042974;28;20183;-74
2021/10/21 04:56:16;;;;;;;6.83;1.33;;;;;;;;;;5044014;28;20194;-74
2021/10/21 04:58:41;;;;;;;3.90;0.80;;;;;;;;;;5045354;28;20208;-74
2021/10/21 05:01:06;;;;;;;2.97;1.20;;;;;;;;;;5041450;28;20643;-74
2021/10/21 05:03:32;;;;;;;3.23;1.00;;;;;;;;;;5044249;28;20756;-74
2021/10/21 05:05:57;;;;;;;2.60;0.90;;;;;;;;;;5047304;28;20716;-74
2021/10/21 05:08:22;;;;;;;2.90;1.10;;;;;;;;;;5044621;28;20198;-74
2021/10/21 05:10:48;;;;;;;2.30;1.00;;;;;;;;;;5048233;28;20195;-74
2021/10/21 05:13:13;;;;;;;6.20;1.20;;;;;;;;;;5046263;28;20191;-74
2021/10/21 05:15:40;;;;;;;1.80;1.00;;;;;;;;;;5030588;28;20237;-74
2021/10/21 05:18:05;;;;;;;4.80;1.10;;;;;;;;;;5047359;28;20297;-74
2021/10/21 05:20:31;;;;;;;2.40;1.10;;;;;;;;;;5048807;28;20472;-74
2021/10/21 05:22:56;;;;;;;3.30;1.00;;;;;;;;;;5046322;28;20180;-74
2021/10/21 05:25:21;;;;;;;2.10;1.00;;;;;;;;;;5040833;28;20501;-74
2021/10/21 05:27:47;;;;;;;3.33;1.23;;;;;;;;;;5045480;28;20211;-75
2021/10/21 05:30:12;;;;;;;4.60;1.10;;;;;;;;;;5048909;28;20191;-75
2021/10/21 05:32:37;;;;;;;2.27;0.90;;;;;;;;;;5046274;28;20176;-75
2021/10/21 05:35:03;;;;;;;4.20;1.20;;;;;;;;;;5051387;28;20206;-75
2021/10/21 05:37:28;;;;;;;2.63;0.80;;;;;;;;;;5046364;28;20207;-75
2021/10/21 05:39:54;;;;;;;3.30;0.93;;;;;;;;;;5043207;28;20187;-76
2021/10/21 05:42:20;;;;;;;2.30;0.70;;;;;;;;;;5045950;28;20294;-76
2021/10/21 05:44:45;;;;;;;1.63;0.80;;;;;;;;;;5045982;28;21134;-76
2021/10/21 05:47:10;;;;;;;1.93;0.70;;;;;;;;;;5034125;22;20521;-75
2021/10/21 05:49:35;;;;;;;3.77;1.00;;;;;;;;;;5023807;28;20245;-77
2021/10/21 05:52:00;;;;;;;4.50;0.87;;;;;;;;;;5017975;28;20197;-75
2021/10/21 05:54:26;;;;;;;4.93;1.00;;;;;;;;;;5053885;28;20199;-75
2021/10/21 05:56:51;;;;;;;3.37;1.10;;;;;;;;;;5021815;28;20558;-75
2021/10/21 05:59:16;;;;;;;6.77;1.07;;;;;;;;;;5021567;28;20185;-75
2021/10/21 06:01:41;;;;;;;6.77;1.00;;;;;;;;;;5016884;28;20579;-75
2021/10/21 06:04:07;;;;;;;4.47;0.93;;;;;;;;;;5021697;28;20259;-76
2021/10/21 06:06:36;;;;;;;3.77;1.00;;;;;;;;;;5018798;28;20199;-76
2021/10/21 06:09:03;;;;;;;7.27;1.40;;;;;;;;;;5023238;28;20207;-76
2021/10/21 06:11:28;;;;;;;7.07;1.70;;;;;;;;;;5024940;28;20476;-76
2021/10/21 06:13:54;;;;;;;8.13;1.53;;;;;;;;;;5020086;28;20442;-76
2021/10/21 06:16:19;;;;;;;9.30;1.33;;;;;;;;;;5017183;28;20204;-76
2021/10/21 06:18:44;;;;;;;2.57;0.80;;;;;;;;;;5021784;28;20209;-76
2021/10/21 06:21:11;;;;;;;4.37;0.97;;;;;;;;;;5025100;28;20188;-77
2021/10/21 06:23:37;;;;;;;6.93;1.10;;;;;;;;;;5020235;28;20195;-76
2021/10/21 06:26:02;;;;;;;6.83;1.20;;;;;;;;;;5022021;28;20455;-76
2021/10/21 06:28:27;;;;;;;6.77;1.37;;;;;;;;;;5014177;28;20285;-76
2021/10/21 06:30:52;;;;;;;4.37;1.10;;;;;;;;;;5019890;28;20177;-76
2021/10/21 06:33:18;;;;;;;11.63;1.20;;;;;;;;;;5021094;28;20196;-77
2021/10/21 06:35:44;;;;;;;3.70;1.03;;;;;;;;;;5020039;28;20181;-75
2021/10/21 06:38:09;;;;;;;12.43;2.37;;;;;;;;;;5031843;23;20250;-76
2021/10/21 06:40:35;;;;;;;10.13;1.73;;;;;;;;;;5026467;28;20933;-75
2021/10/21 06:43:00;;;;;;;7.20;1.50;;;;;;;;;;5029204;28;20188;-76
2021/10/21 06:45:25;;;;;;;13.03;1.70;;;;;;;;;;5027635;28;20204;-77
2021/10/21 06:47:51;;;;;;;6.60;1.40;;;;;;;;;;5027326;28;20203;-75
2021/10/21 06:50:16;;;;;;;6.00;1.10;;;;;;;;;;5026920;28;20176;-76
2021/10/21 06:52:44;;;;;;;5.30;2.00;;;;;;;;;;5029832;28;20192;-77
2021/10/21 06:55:10;;;;;;;6.13;1.40;;;;;;;;;;5028455;28;20635;-76
2021/10/21 06:57:48;;;;;;;3.60;1.07;;;;;;;;;;5027783;28;20456;-75
2021/10/21 07:00:14;;;;;;;7.70;1.30;;;;;;;;;;5028754;28;20261;-76
2021/10/21 07:02:39;;;;;;;3.30;1.17;;;;;;;;;;5026946;28;20528;-76
2021/10/21 07:05:05;;;;;;;11.73;2.23;;;;;;;;;;5028386;28;20423;-76
2021/10/21 07:07:30;;;;;;;7.43;1.47;;;;;;;;;;5027175;28;20203;-77
2021/10/21 07:09:58;;;;;;;5.00;1.70;;;;;;;;;;5024809;28;20808;-75
2021/10/21 07:12:24;;;;;;;5.50;1.27;;;;;;;;;;5029362;28;20176;-76
2021/10/21 07:14:49;;;;;;;6.57;1.27;;;;;;;;;;5025934;28;20420;-76
2021/10/21 07:17:14;;;;;;;5.00;1.40;;;;;;;;;;5025830;28;20197;-76
2021/10/21 07:19:40;;;;;;;8.67;1.23;;;;;;;;;;5028321;28;20231;-76
2021/10/21 07:22:05;;;;;;;4.27;1.43;;;;;;;;;;5029351;28;20184;-76
2021/10/21 07:24:32;;;;;;;5.93;1.60;;;;;;;;;;5027162;28;20271;-76
2021/10/21 07:26:58;;;;;;;7.17;1.87;;;;;;;;;;5025370;28;20263;-75
2021/10/21 07:29:23;;;;;;;7.80;1.57;;;;;;;;;;5022004;28;20433;-76
2021/10/21 07:31:49;;;;;;;9.00;2.43;;;;;;;;;;5026608;28;20187;-76
2021/10/21 07:34:14;;;;;;;10.03;1.50;;;;;;;;;;5029171;28;20230;-76
2021/10/21 07:36:39;;;;;;;6.53;1.30;;;;;;;;;;5027404;28;20639;-76
2021/10/21 07:39:04;;;;;;;5.33;1.30;;;;;;;;;;5025909;28;20246;-76
2021/10/21 07:41:30;;;;;;;9.10;1.77;;;;;;;;;;5023693;28;20215;-76
2021/10/21 07:43:55;;;;;;;5.50;1.53;;;;;;;;;;5028958;28;20188;-76
2021/10/21 07:46:21;;;;;;;5.80;1.70;;;;;;;;;;5026140;28;20196;-76
2021/10/21 07:48:46;;;;;;;4.43;1.50;;;;;;;;;;5029414;28;20208;-76
2021/10/21 07:51:12;;;;;;;4.20;0.90;;;;;;;;;;5026724;28;20437;-76
2021/10/21 07:53:37;;;;;;;8.03;2.23;;;;;;;;;;5025374;28;20595;-76
2021/10/21 07:56:02;;;;;;;9.27;1.80;;;;;;;;;;5029060;28;20181;-76
2021/10/21 07:58:28;;;;;;;10.93;1.83;;;;;;;;;;5023745;28;20238;-76
2021/10/21 08:00:53;;;;;;;4.97;1.30;;;;;;;;;;5025427;28;20188;-75
2021/10/21 08:03:19;;;;;;;6.40;2.17;;;;;;;;;;5024304;28;20198;-76
2021/10/21 08:05:44;;;;;;;9.13;1.60;;;;;;;;;;5028256;28;20231;-76
2021/10/21 08:08:11;;;;;;;9.27;1.73;;;;;;;;;;5026798;28;20450;-75
2021/10/21 08:10:37;;;;;;;17.43;2.40;;;;;;;;;;5026709;28;20188;-76
2021/10/21 08:13:02;;;;;;;10.83;2.20;;;;;;;;;;5026858;28;21135;-76
2021/10/21 08:15:28;;;;;;;10.80;2.10;;;;;;;;;;5027209;28;20239;-76
2021/10/21 08:17:59;;;;;;;9.30;1.47;;;;;;;;;;5025739;28;20205;-75
2021/10/21 08:20:27;;;;;;;7.63;1.07;;;;;;;;;;5024773;28;20187;-75
2021/10/21 08:22:54;;;;;;;6.57;1.73;;;;;;;;;;5025313;28;20477;-75
2021/10/21 08:25:20;;;;;;;4.63;1.50;;;;;;;;;;5026922;28;20434;-76
2021/10/21 08:27:45;;;;;;;6.10;1.20;;;;;;;;;;5029134;28;20446;-76
2021/10/21 08:30:12;;;;;;;7.53;1.77;;;;;;;;;;5025026;28;20638;-75
2021/10/21 08:32:38;;;;;;;10.03;1.40;;;;;;;;;;5027080;28;20267;-75
2021/10/21 08:35:03;;;;;;;7.60;1.43;;;;;;;;;;5009874;28;21029;-75
2021/10/21 08:37:29;;;;;;;4.27;1.50;;;;;;;;;;5008626;28;20216;-75
2021/10/21 08:39:55;;;;;;;5.27;1.57;;;;;;;;;;5025703;28;20267;-75
2021/10/21 08:42:21;;;;;;;7.53;1.37;;;;;;;;;;5029867;28;20212;-75
2021/10/21 08:44:46;;;;;;;11.77;1.97;;;;;;;;;;5024910;28;20466;-75
2021/10/21 08:47:12;;;;;;;5.57;1.40;;;;;;;;;;5026180;28;20215;-75
2021/10/21 08:49:39;;;;;;;7.47;1.60;;;;;;;;;;5025158;28;20211;-75
2021/10/21 08:52:05;;;;;;;5.13;1.10;;;;;;;;;;5030753;28;20268;-75
2021/10/21 08:54:30;;;;;;;10.70;1.80;;;;;;;;;;5026875;28;20534;-75
2021/10/21 08:56:55;;;;;;;11.60;2.20;;;;;;;;;;5022917;28;20194;-75
2021/10/21 08:59:20;;;;;;;6.80;2.30;;;;;;;;;;5027915;28;20188;-76
2021/10/21 09:01:49;;;;;;;9.53;1.63;;;;;;;;;;5005847;28;20180;-75
2021/10/21 09:04:22;;;;;;;8.07;1.50;;;;;;;;;;5027112;28;20195;-76
2021/10/21 09:07:54;;;;;;;10.50;2.23;;;;;;;;;;5026921;28;20478;-76
2021/10/21 09:09:33;;;;;;;6.03;1.70;;;;;;;;;;5031619;28;20426;-76
2021/10/21 09:12:01;;;;;;;9.20;1.63;;;;;;;;;;5030494;28;20427;-75
2021/10/21 09:14:30;;;;;;;9.07;1.50;;;;;;;;;;5030422;28;20808;-76
2021/10/21 09:17:00;;;;;;;7.33;1.50;;;;;;;;;;5028923;28;20916;-77
2021/10/21 09:19:26;;;;;;;11.13;1.90;;;;;;;;;;5031901;28;20452;-77
2021/10/21 09:21:51;;;;;;;5.93;2.13;;;;;;;;;;5030316;28;20829;-76
2021/10/21 09:24:22;;;;;;;8.23;1.77;;;;;;;;;;5032037;28;20438;-76
2021/10/21 09:26:58;;;;;;;3.97;1.43;;;;;;;;;;5027813;28;20200;-76
2021/10/21 09:29:24;;;;;;;9.80;1.93;;;;;;;;;;5033065;28;20415;-76
2021/10/21 09:32:01;;;;;;;10.80;2.53;;;;;;;;;;5029462;28;20438;-76
2021/10/21 09:34:27;;;;;;;8.07;1.40;;;;;;;;;;5032258;28;20176;-78
2021/10/21 09:36:52;;;;;;;7.87;1.60;;;;;;;;;;5029604;28;20431;-77
2021/10/21 09:39:17;;;;;;;7.33;1.93;;;;;;;;;;5030779;28;20184;-77
2021/10/21 09:41:43;;;;;;;7.33;1.30;;;;;;;;;;5030595;28;20184;-76
2021/10/21 09:44:24;;;;;;;9.70;1.97;;;;;;;;;;5027107;28;20192;-77
2021/10/21 09:46:49;;;;;;;11.60;1.93;;;;;;;;;;5007875;28;20234;-76
2021/10/21 09:49:14;;;;;;;6.90;1.33;;;;;;;;;;5031478;28;20513;-76
2021/10/21 09:51:39;;;;;;;6.43;1.70;;;;;;;;;;5027716;28;20227;-76
2021/10/21 09:54:05;;;;;;;9.30;2.00;;;;;;;;;;5031496;28;20695;-76
2021/10/21 09:56:30;;;;;;;11.17;2.13;;;;;;;;;;5026931;28;20696;-76
2021/10/21 09:59:04;;;;;;;11.37;2.60;;;;;;;;;;5030629;28;20195;-76
2021/10/21 10:01:34;;;;;;;6.37;1.70;;;;;;;;;;5029151;28;20177;-75
2021/10/21 10:04:00;;;;;;;7.80;1.70;;;;;;;;;;5030371;28;20423;-76
2021/10/21 10:06:25;;;;;;;9.30;2.83;;;;;;;;;;5028887;28;20459;-76
2021/10/21 10:08:50;;;;;;;6.13;1.37;;;;;;;;;;5031425;28;20218;-76
2021/10/21 10:11:19;;;;;;;10.67;2.50;;;;;;;;;;5012720;28;20195;-76
2021/10/21 10:13:49;;;;;;;7.17;1.83;;;;;;;;;;5029591;28;20678;-76
2021/10/21 10:16:15;;;;;;;6.60;1.80;;;;;;;;;;5030131;28;20438;-76
2021/10/21 10:18:42;;;;;;;8.20;2.10;;;;;;;;;;5031348;28;20454;-76
2021/10/21 10:21:07;;;;;;;4.90;1.40;;;;;;;;;;5031345;28;20513;-76
2021/10/21 10:23:33;;;;;;;6.80;1.53;;;;;;;;;;5031739;28;20462;-76
2021/10/21 10:25:59;;;;;;;10.43;2.03;;;;;;;;;;5031598;28;20200;-76
2021/10/21 10:28:24;;;;;;;9.60;2.47;;;;;;;;;;5031507;28;20797;-76
2021/10/21 10:30:51;;;;;;;7.93;1.63;;;;;;;;;;5030947;28;20181;-76
2021/10/21 10:33:32;;;;;;;8.70;1.90;;;;;;;;;;5031223;28;20173;-76
2021/10/21 10:36:16;;;;;;;12.90;2.63;;;;;;;;;;5030395;28;20524;-76
2021/10/21 10:38:41;;;;;;;9.47;1.60;;;;;;;;;;5031587;28;20447;-76
2021/10/21 10:41:06;;;;;;;8.70;1.67;;;;;;;;;;5009946;28;21903;-76
2021/10/21 10:43:41;;;;;;;5.63;1.47;;;;;;;;;;5026364;28;20180;-76
2021/10/21 10:46:09;;;;;;;4.03;1.03;;;;;;;;;;5027680;28;20597;-76
2021/10/21 10:48:47;;;;;;;6.23;1.07;;;;;;;;;;5026240;28;20458;-76
2021/10/21 10:51:13;;;;;;;6.47;1.67;;;;;;;;;;5029860;28;20427;-75
2021/10/21 10:53:42;;;;;;;10.10;2.10;;;;;;;;;;5029095;28;20489;-75
2021/10/21 10:56:07;;;;;;;8.70;2.00;;;;;;;;;;5012536;28;20507;-75
2021/10/21 10:58:33;;;;;;;7.97;2.20;;;;;;;;;;5027742;28;20469;-76
2021/10/21 11:00:59;;;;;;;7.30;1.93;;;;;;;;;;5025570;28;20207;-76
2021/10/21 11:03:34;;;;;;;10.47;2.00;;;;;;;;;;5024446;28;20439;-76
2021/10/21 11:06:03;;;;;;;6.90;1.70;;;;;;;;;;5005148;28;20501;-77
2021/10/21 11:08:47;;;;;;;3.00;1.30;;;;;;;;;;5029482;28;21136;-76
2021/10/21 11:11:32;;;;;;;6.10;1.50;;;;;;;;;;5031815;28;20916;-77
2021/10/21 11:14:05;;;;;;;9.77;1.60;;;;;;;;;;5014705;28;20453;-76
2021/10/21 11:16:43;;;;;;;5.10;1.47;;;;;;;;;;5029742;28;20458;-76
2021/10/21 11:19:09;;;;;;;8.67;1.80;;;;;;;;;;5028929;28;20426;-76
2021/10/21 11:21:54;;;;;;;6.33;1.40;;;;;;;;;;5030375;28;20481;-77
2021/10/21 11:24:38;;;;;;;3.97;1.27;;;;;;;;;;5025889;28;20438;-76
2021/10/21 11:27:06;;;;;;;5.57;1.40;;;;;;;;;;5025354;28;20554;-76
2021/10/21 11:29:33;;;;;;;3.80;1.20;;;;;;;;;;5008142;28;20442;-76
2021/10/21 11:31:58;;;;;;;15.80;1.60;;;;;;;;;;5023800;28;20469;-77
2021/10/21 11:34:24;;;;;;;8.87;2.00;;;;;;;;;;5029172;28;20466;-77
2021/10/21 11:36:49;;;;;;;3.80;1.50;;;;;;;;;;5010285;28;20275;-77
2021/10/21 11:39:14;;;;;;;6.23;1.40;;;;;;;;;;5027701;28;20191;-76
2021/10/21 11:41:39;;;;;;;5.60;1.53;;;;;;;;;;5027311;28;20207;-75
2021/10/21 11:44:05;;;;;;;4.87;1.20;;;;;;;;;;5026449;28;20224;-76
2021/10/21 11:46:30;;;;;;;3.03;1.30;;;;;;;;;;5026976;28;20589;-76
2021/10/21 11:48:58;;;;;;;4.83;1.20;;;;;;;;;;5025622;28;20204;-76
2021/10/21 11:51:27;;;;;;;6.00;1.80;;;;;;;;;;5025777;28;20582;-76
2021/10/21 11:53:56;;;;;;;8.27;2.07;;;;;;;;;;5027810;28;20430;-76
2021/10/21 11:56:24;;;;;;;40.60;3.17;;;;;;;;;;5026844;28;20515;-80
2021/10/21 11:58:50;;;;;;;7.23;1.40;;;;;;;;;;5014356;28;20446;-80
2021/10/21 12:01:21;;;;;;;5.20;1.30;;;;;;;;;;5029925;28;20437;-79
2021/10/21 12:03:48;;;;;;;2.00;1.00;;;;;;;;;;5029326;28;20646;-78
2021/10/21 12:06:14;;;;;;;3.83;1.33;;;;;;;;;;5026626;28;20455;-78
2021/10/21 12:08:47;;;;;;;6.13;1.40;;;;;;;;;;5021599;28;20450;-80
2021/10/21 12:11:17;;;;;;;7.00;1.50;;;;;;;;;;5027506;28;20795;-77
2021/10/21 12:13:42;;;;;;;5.90;1.63;;;;;;;;;;5026961;28;20813;-77
2021/10/21 12:16:12;;;;;;;5.13;1.37;;;;;;;;;;5026364;28;20449;-78
2021/10/21 12:18:38;;;;;;;10.03;1.60;;;;;;;;;;5027495;28;20204;-78
2021/10/21 12:21:06;;;;;;;5.07;1.67;;;;;;;;;;5028983;28;20513;-79
2021/10/21 12:23:32;;;;;;;9.63;1.80;;;;;;;;;;5027056;28;20219;-77
2021/10/21 12:26:00;;;;;;;7.40;2.17;;;;;;;;;;5028848;28;20459;-79
2021/10/21 12:28:37;;;;;;;4.53;1.13;;;;;;;;;;5027367;28;20469;-76
2021/10/21 12:31:14;;;;;;;6.33;1.30;;;;;;;;;;5027284;28;20549;-78
2021/10/21 12:33:48;;;;;;;4.17;1.23;;;;;;;;;;5027802;28;20452;-76
2021/10/21 12:36:19;;;;;;;6.93;1.43;;;;;;;;;;5029958;28;20427;-77
2021/10/21 12:38:45;;;;;;;4.47;1.30;;;;;;;;;;5026566;28;20517;-77
2021/10/21 12:41:10;;;;;;;7.40;1.73;;;;;;;;;;5027458;28;20449;-77
2021/10/21 12:43:36;;;;;;;4.77;1.50;;;;;;;;;;5027029;28;20247;-76
2021/10/21 12:46:01;;;;;;;3.03;1.30;;;;;;;;;;5027868;28;20578;-76
2021/10/21 12:48:34;;;;;;;4.43;1.33;;;;;;;;;;5024144;28;20282;-76
2021/10/21 12:51:13;;;;;;;8.10;1.70;;;;;;;;;;5024858;28;21008;-77
2021/10/21 12:53:39;;;;;;;5.07;1.47;;;;;;;;;;5026803;28;20812;-77
2021/10/21 12:56:11;;;;;;;4.60;1.00;;;;;;;;;;5023153;28;21143;-76
2021/10/21 12:58:36;;;;;;;3.77;0.97;;;;;;;;;;5022593;28;20468;-77
2021/10/21 13:01:01;;;;;;;1.50;0.80;;;;;;;;;;5023220;28;20434;-78
2021/10/21 13:03:36;;;;;;;2.60;0.70;;;;;;;;;;5023102;28;20542;-77
2021/10/21 13:06:01;;;;;;;2.87;0.80;;;;;;;;;;5025949;28;20633;-77
2021/10/21 13:24:51;;;;;;;7.50;1.33;;;;;;;;;;5162847;27;20369;-77
2021/10/21 13:27:16;;;;;;;7.83;2.30;;;;;;;;;;5154950;27;20461;-77
2021/10/21 13:29:41;;;;;;;6.83;1.90;;;;;;;;;;5153160;27;20180;-79
2021/10/21 13:32:07;;;;;;;7.30;1.80;;;;;;;;;;5154172;27;20172;-78
2021/10/21 13:47:53;;;;;;;18.80;4.10;;;;;;;;;;5069667;27;20926;-77
2021/10/21 13:50:18;;;;;;;12.37;3.90;;;;;;;;;;5074825;28;20970;-78
2021/10/21 13:52:43;;;;;;;22.63;5.63;;;;;;;;;;5076406;28;20449;-80
2021/10/21 13:55:08;;;;;;;19.40;4.77;;;;;;;;;;5074997;28;20201;-78
2021/10/21 13:57:34;;;;;;;16.40;4.13;;;;;;;;;;5075335;28;20209;-80
2021/10/21 13:59:59;;;;;;;14.50;4.03;;;;;;;;;;5074016;28;20175;-78
2021/10/21 14:02:27;;;;;;;23.23;4.80;;;;;;;;;;5076171;28;20440;-78
2021/10/21 14:04:52;;;;;;;11.90;3.20;;;;;;;;;;5068999;28;20202;-79
2021/10/21 14:07:18;;;;;;;12.70;3.27;;;;;;;;;;5069857;28;20821;-79
2021/10/21 14:09:44;;;;;;;16.00;4.20;;;;;;;;;;5068769;28;20186;-78
2021/10/21 14:12:09;;;;;;;18.20;4.20;;;;;;;;;;5077714;28;20451;-80
2021/10/21 14:14:35;;;;;;;14.43;3.17;;;;;;;;;;5071783;28;20266;-80
2021/10/21 14:17:01;;;;;;;17.20;3.00;;;;;;;;;;5068195;28;20333;-80
2021/10/21 14:19:26;;;;;;;11.33;3.97;;;;;;;;;;5071177;28;20186;-79
2021/10/21 14:21:51;;;;;;;15.20;3.43;;;;;;;;;;5075153;28;20417;-77
2021/10/21 14:24:16;;;;;;;18.67;3.57;;;;;;;;;;5070662;28;20594;-78
2021/10/21 14:26:42;;;;;;;14.10;3.17;;;;;;;;;;5065364;28;20217;-78
2021/10/21 14:29:11;;;;;;;15.33;2.77;;;;;;;;;;5069794;28;20214;-76
2021/10/21 14:31:39;;;;;;;10.83;3.03;;;;;;;;;;5075028;28;20187;-77
2021/10/21 14:34:04;;;;;;;12.30;3.10;;;;;;;;;;5066186;28;20432;-77
2021/10/21 14:36:30;;;;;;;11.37;2.80;;;;;;;;;;5066580;28;20464;-77
2021/10/21 14:38:55;;;;;;;7.90;2.57;;;;;;;;;;5066855;28;20206;-77
2021/10/21 14:41:21;;;;;;;11.23;3.70;;;;;;;;;;5062082;28;20175;-77
2021/10/21 14:43:46;;;;;;;11.20;2.90;;;;;;;;;;5071325;28;20182;-77
2021/10/21 14:46:11;;;;;;;8.63;2.40;;;;;;;;;;5064175;28;20299;-79
2021/10/21 14:48:37;;;;;;;9.13;2.50;;;;;;;;;;5068812;28;20175;-78
2021/10/21 14:51:02;;;;;;;11.40;2.60;;;;;;;;;;5072989;28;20174;-79
2021/10/21 15:22:40;;;;;;;10.10;2.37;;;;;;;;;;5015533;28;20500;-79
2021/10/21 15:25:05;;;;;;;11.83;2.70;;;;;;;;;;5010930;28;20575;-79
2021/10/21 15:27:32;;;;;;;10.50;2.83;;;;;;;;;;5021198;28;20538;-80
2021/10/21 15:29:58;;;;;;;8.63;2.37;;;;;;;;;;5012886;28;20173;-78
2021/10/21 15:32:23;;;;;;;10.07;2.53;;;;;;;;;;5015525;28;20808;-79
2021/10/21 15:34:49;;;;;;;9.60;2.40;;;;;;;;;;5016362;28;20490;-78
2021/10/21 15:37:14;;;;;;;6.03;1.83;;;;;;;;;;5017496;28;20193;-78